createdAt,value
2019-03-29T00:00:15.044Z,6.30
2019-03-29T00:02:45.933Z,6.30
2019-03-29T00:05:15.216Z,6.20
2019-03-29T00:07:44.494Z,6.10
2019-03-29T00:10:13.770Z,6.10
2019-03-29T00:12:43.062Z,6.10
2019-03-29T00:15:12.342Z,6.00
2019-03-29T00:17:41.617Z,6.00
2019-03-29T00:20:10.962Z,6.00
2019-03-29T00:22:40.235Z,5.90
2019-03-29T00:25:09.504Z,5.80
2019-03-29T00:27:38.781Z,5.80
2019-03-29T00:30:08.199Z,5.80
2019-03-29T00:32:37.462Z,5.70
2019-03-29T00:35:08.030Z,5.70
2019-03-29T00:37:37.636Z,5.70
2019-03-29T00:40:08.145Z,5.70
2019-03-29T00:42:37.413Z,5.70
2019-03-29T00:45:08.238Z,5.60
2019-03-29T00:47:37.510Z,5.60
2019-03-29T00:50:07.065Z,5.60
2019-03-29T00:52:36.611Z,5.60
2019-03-29T00:55:07.192Z,5.60
2019-03-29T00:57:36.494Z,5.50
2019-03-29T01:00:07.291Z,5.50
2019-03-29T01:02:36.552Z,5.50
2019-03-29T01:05:07.753Z,5.50
2019-03-29T01:07:37.996Z,5.40
2019-03-29T01:10:08.524Z,5.40
2019-03-29T01:12:37.800Z,5.40
2019-03-29T01:15:10.168Z,5.40
2019-03-29T01:17:39.449Z,5.40
2019-03-29T01:20:09.257Z,5.40
2019-03-29T01:22:38.536Z,5.30
2019-03-29T01:25:08.319Z,5.30
2019-03-29T01:27:37.974Z,5.30
2019-03-29T01:30:07.876Z,5.30
2019-03-29T01:32:37.176Z,5.30
2019-03-29T01:35:07.260Z,5.30
2019-03-29T01:37:36.694Z,5.30
2019-03-29T01:40:06.909Z,5.30
2019-03-29T01:42:36.183Z,5.30
2019-03-29T01:45:07.692Z,5.30
2019-03-29T01:47:36.976Z,5.30
2019-03-29T01:50:08.003Z,5.30
2019-03-29T01:52:37.353Z,5.40
2019-03-29T01:55:07.360Z,5.40
2019-03-29T01:57:36.655Z,5.30
2019-03-29T02:00:06.378Z,5.40
2019-03-29T02:02:35.657Z,5.30
2019-03-29T02:05:06.785Z,5.30
2019-03-29T02:07:36.203Z,5.30
2019-03-29T02:10:09.585Z,5.30
2019-03-29T02:12:38.869Z,5.30
2019-03-29T02:15:09.177Z,5.30
2019-03-29T02:17:38.465Z,5.30
2019-03-29T02:20:08.593Z,5.30
2019-03-29T02:22:37.879Z,5.30
2019-03-29T02:25:08.285Z,5.30
2019-03-29T02:27:37.636Z,5.30
2019-03-29T02:30:08.059Z,5.30
2019-03-29T02:32:37.340Z,5.30
2019-03-29T02:35:06.881Z,5.30
2019-03-29T02:37:36.254Z,5.30
2019-03-29T02:40:06.349Z,5.30
2019-03-29T02:42:35.639Z,5.30
2019-03-29T02:45:05.946Z,5.30
2019-03-29T02:47:35.236Z,5.30
2019-03-29T02:50:05.442Z,5.30
2019-03-29T02:52:34.793Z,5.30
2019-03-29T02:55:05.818Z,5.30
2019-03-29T02:57:35.100Z,5.20
2019-03-29T03:00:07.605Z,5.20
2019-03-29T03:02:36.864Z,5.20
2019-03-29T03:05:06.777Z,5.20
2019-03-29T03:07:36.048Z,5.20
2019-03-29T03:10:08.442Z,5.10
2019-03-29T03:12:37.781Z,5.10
2019-03-29T03:15:09.217Z,5.10
2019-03-29T03:17:38.769Z,5.10
2019-03-29T03:20:14.673Z,5.00
2019-03-29T03:22:41.521Z,5.00
2019-03-29T03:25:11.036Z,5.00
2019-03-29T03:27:40.312Z,5.00
2019-03-29T03:30:11.433Z,4.90
2019-03-29T03:32:40.737Z,4.90
2019-03-29T03:35:10.792Z,4.80
2019-03-29T03:37:40.139Z,4.80
2019-03-29T03:40:09.851Z,4.80
2019-03-29T03:42:40.195Z,4.80
2019-03-29T03:45:10.023Z,4.70
2019-03-29T03:47:40.049Z,4.70
2019-03-29T03:50:15.358Z,4.60
2019-03-29T03:52:44.637Z,4.60
2019-03-29T03:55:13.928Z,4.60
2019-03-29T03:57:43.345Z,4.50
2019-03-29T04:00:12.761Z,4.50
2019-03-29T04:02:42.035Z,4.50
2019-03-29T04:05:11.319Z,4.50
2019-03-29T04:07:40.592Z,4.40
2019-03-29T04:10:09.938Z,4.40
2019-03-29T04:12:39.210Z,4.40
2019-03-29T04:15:08.492Z,4.40
2019-03-29T04:17:37.766Z,4.40
2019-03-29T04:20:07.387Z,4.30
2019-03-29T04:22:36.665Z,4.30
2019-03-29T04:25:07.209Z,4.30
2019-03-29T04:27:36.480Z,4.20
2019-03-29T04:30:06.623Z,4.20
2019-03-29T04:32:35.890Z,4.20
2019-03-29T04:35:05.269Z,4.10
2019-03-29T04:37:34.544Z,4.10
2019-03-29T04:40:08.100Z,4.10
2019-03-29T04:42:35.639Z,4.10
2019-03-29T04:45:06.767Z,4.10
2019-03-29T04:47:36.021Z,4.00
2019-03-29T04:50:06.767Z,4.00
2019-03-29T04:52:37.058Z,4.00
2019-03-29T04:55:06.501Z,4.00
2019-03-29T04:57:35.776Z,4.00
2019-03-29T05:00:06.856Z,4.00
2019-03-29T05:02:36.135Z,4.00
2019-03-29T05:05:06.656Z,4.00
2019-03-29T05:07:37.091Z,4.00
2019-03-29T05:10:20.412Z,4.00
2019-03-29T05:12:39.294Z,4.00
2019-03-29T05:15:08.682Z,4.00
2019-03-29T05:17:37.989Z,4.00
2019-03-29T05:20:07.395Z,4.00
2019-03-29T05:22:36.673Z,4.00
2019-03-29T05:25:06.386Z,4.00
2019-03-29T05:27:35.664Z,4.00
2019-03-29T05:30:06.168Z,4.00
2019-03-29T05:32:35.452Z,4.00
2019-03-29T05:35:06.670Z,4.00
2019-03-29T05:37:36.997Z,4.00
2019-03-29T05:40:07.203Z,4.00
2019-03-29T05:42:36.502Z,4.00
2019-03-29T05:45:08.156Z,4.00
2019-03-29T05:47:37.453Z,4.00
2019-03-29T05:50:07.353Z,4.00
2019-03-29T05:52:36.634Z,4.00
2019-03-29T05:55:07.561Z,4.10
2019-03-29T05:57:36.850Z,4.10
2019-03-29T06:00:08.800Z,4.10
2019-03-29T06:02:38.108Z,4.10
2019-03-29T06:05:07.447Z,4.10
2019-03-29T06:07:36.728Z,4.20
2019-03-29T06:10:06.745Z,4.20
2019-03-29T06:12:47.910Z,4.20
2019-03-29T06:15:17.192Z,4.30
2019-03-29T06:17:48.850Z,4.30
2019-03-29T06:20:17.509Z,4.30
2019-03-29T06:22:46.788Z,4.30
2019-03-29T06:25:16.066Z,4.40
2019-03-29T06:27:46.312Z,4.40
2019-03-29T06:30:18.760Z,4.50
2019-03-29T06:32:48.024Z,4.50
2019-03-29T06:35:17.297Z,4.60
2019-03-29T06:37:46.950Z,4.70
2019-03-29T06:40:26.447Z,4.70
2019-03-29T06:42:55.729Z,4.80
2019-03-29T06:45:25.011Z,4.90
2019-03-29T06:47:54.300Z,5.00
2019-03-29T06:50:23.564Z,5.00
2019-03-29T06:52:52.842Z,5.20
2019-03-29T06:55:22.121Z,5.30
2019-03-29T06:57:51.388Z,5.50
2019-03-29T07:00:20.697Z,5.60
2019-03-29T07:02:49.942Z,5.70
2019-03-29T07:05:19.242Z,5.80
2019-03-29T07:07:48.497Z,5.90
2019-03-29T07:10:17.772Z,6.00
2019-03-29T07:12:47.045Z,6.10
2019-03-29T07:15:16.329Z,6.30
2019-03-29T07:17:45.601Z,6.40
2019-03-29T07:20:14.893Z,6.60
2019-03-29T07:22:44.166Z,6.70
2019-03-29T07:25:13.444Z,6.90
2019-03-29T07:27:45.826Z,7.00
2019-03-29T07:30:14.145Z,7.20
2019-03-29T07:32:43.418Z,7.40
2019-03-29T07:35:12.693Z,7.50
2019-03-29T07:37:41.974Z,7.70
2019-03-29T07:40:11.888Z,7.80
2019-03-29T07:42:41.156Z,7.90
2019-03-29T07:45:10.679Z,8.00
2019-03-29T07:47:39.934Z,8.10
2019-03-29T07:50:09.348Z,8.30
2019-03-29T07:52:38.619Z,8.40
2019-03-29T07:55:08.533Z,8.50
2019-03-29T07:57:37.807Z,8.60
2019-03-29T08:00:07.816Z,8.70
2019-03-29T08:02:37.087Z,8.80
2019-03-29T08:05:06.837Z,8.90
2019-03-29T08:07:36.113Z,9.00
2019-03-29T08:10:06.705Z,9.10
2019-03-29T08:12:40.255Z,9.20
2019-03-29T08:15:09.808Z,9.30
2019-03-29T08:17:39.135Z,9.40
2019-03-29T08:20:37.576Z,9.60
2019-03-29T08:22:41.244Z,9.60
2019-03-29T08:25:10.524Z,9.70
2019-03-29T08:27:39.794Z,9.90
2019-03-29T08:30:09.094Z,10.00
2019-03-29T08:32:38.358Z,10.10
2019-03-29T08:35:07.781Z,10.20
2019-03-29T08:37:37.047Z,10.30
2019-03-29T08:40:06.828Z,10.40
2019-03-29T08:42:36.103Z,10.50
2019-03-29T08:45:07.245Z,10.60
2019-03-29T08:47:36.517Z,10.70
2019-03-29T08:50:07.544Z,10.80
2019-03-29T08:52:36.809Z,10.90
2019-03-29T08:55:06.822Z,11.00
2019-03-29T08:57:36.113Z,11.10
2019-03-29T09:00:07.024Z,11.20
2019-03-29T09:02:36.849Z,11.30
2019-03-29T09:05:06.365Z,11.40
2019-03-29T09:07:44.698Z,11.50
2019-03-29T09:10:10.841Z,11.60
2019-03-29T09:12:40.125Z,11.70
2019-03-29T09:15:09.401Z,11.80
2019-03-29T09:17:38.684Z,11.90
2019-03-29T09:20:10.516Z,12.00
2019-03-29T09:22:39.013Z,12.10
2019-03-29T09:25:08.347Z,12.20
2019-03-29T09:27:37.626Z,12.30
2019-03-29T09:30:07.241Z,12.40
2019-03-29T09:32:36.528Z,12.50
2019-03-29T09:35:06.085Z,12.60
2019-03-29T09:37:35.395Z,12.70
2019-03-29T09:40:05.555Z,12.70
2019-03-29T09:42:34.836Z,12.80
2019-03-29T09:45:06.455Z,12.90
2019-03-29T09:47:40.227Z,13.00
2019-03-29T09:50:10.384Z,13.00
2019-03-29T09:52:39.125Z,13.00
2019-03-29T09:55:09.978Z,13.10
2019-03-29T09:57:39.321Z,13.20
2019-03-29T10:00:19.216Z,13.30
2019-03-29T10:02:40.704Z,13.40
2019-03-29T10:05:10.046Z,13.40
2019-03-29T10:07:39.329Z,13.50
2019-03-29T10:10:08.757Z,13.60
2019-03-29T10:12:43.635Z,13.60
2019-03-29T10:15:10.153Z,13.70
2019-03-29T10:17:39.429Z,13.70
2019-03-29T10:20:09.043Z,13.80
2019-03-29T10:22:38.324Z,13.90
2019-03-29T10:25:18.419Z,14.00
2019-03-29T10:27:38.643Z,14.00
2019-03-29T10:30:11.721Z,14.10
2019-03-29T10:32:41.078Z,14.20
2019-03-29T10:35:10.509Z,14.20
2019-03-29T10:37:39.789Z,14.30
2019-03-29T10:40:10.204Z,14.40
2019-03-29T10:42:40.283Z,14.50
2019-03-29T10:45:09.813Z,14.60
2019-03-29T10:47:43.567Z,14.70
2019-03-29T10:50:10.137Z,14.80
2019-03-29T10:52:39.413Z,14.90
2019-03-29T10:55:08.820Z,15.00
2019-03-29T10:57:38.369Z,15.00
2019-03-29T11:00:14.380Z,15.00
2019-03-29T11:02:43.654Z,15.10
2019-03-29T11:05:12.953Z,15.10
2019-03-29T11:07:42.230Z,15.20
2019-03-29T11:10:14.576Z,15.30
2019-03-29T11:12:43.856Z,15.40
2019-03-29T11:15:13.128Z,15.40
2019-03-29T11:17:42.417Z,15.50
2019-03-29T11:20:11.698Z,15.50
2019-03-29T11:22:40.988Z,15.60
2019-03-29T11:25:10.273Z,15.70
2019-03-29T11:27:39.556Z,15.80
2019-03-29T11:30:08.990Z,15.80
2019-03-29T11:32:38.272Z,15.90
2019-03-29T11:35:07.609Z,16.00
2019-03-29T11:37:36.888Z,16.10
2019-03-29T11:40:07.105Z,16.20
2019-03-29T11:42:36.372Z,16.30
2019-03-29T11:45:06.392Z,16.40
2019-03-29T11:47:35.665Z,16.40
2019-03-29T11:50:05.878Z,16.50
2019-03-29T11:52:35.141Z,16.60
2019-03-29T11:55:05.880Z,16.60
2019-03-29T11:57:35.141Z,16.60
2019-03-29T12:00:06.963Z,16.70
2019-03-29T12:02:36.234Z,16.80
2019-03-29T12:05:06.553Z,16.90
2019-03-29T12:07:35.808Z,17.00
2019-03-29T12:10:06.531Z,17.10
2019-03-29T12:12:35.814Z,17.20
2019-03-29T12:15:07.433Z,17.30
2019-03-29T12:17:36.698Z,17.30
2019-03-29T12:20:06.804Z,17.40
2019-03-29T12:22:36.071Z,17.50
2019-03-29T12:25:07.338Z,17.60
2019-03-29T12:27:36.593Z,17.70
2019-03-29T12:30:09.609Z,17.70
2019-03-29T12:32:39.881Z,17.70
2019-03-29T12:35:10.153Z,17.80
2019-03-29T12:37:39.577Z,17.90
2019-03-29T12:40:09.386Z,18.00
2019-03-29T12:42:38.667Z,18.10
2019-03-29T12:45:08.276Z,18.20
2019-03-29T12:47:37.550Z,18.30
2019-03-29T12:50:07.565Z,18.40
2019-03-29T12:52:36.843Z,18.50
2019-03-29T12:55:06.726Z,18.60
2019-03-29T12:57:38.784Z,18.70
2019-03-29T13:00:08.910Z,18.80
2019-03-29T13:02:38.213Z,18.80
2019-03-29T13:05:07.769Z,18.90
2019-03-29T13:07:37.037Z,19.10
2019-03-29T13:10:08.357Z,19.20
2019-03-29T13:12:37.632Z,19.50
2019-03-29T13:15:07.868Z,19.80
2019-03-29T13:17:37.682Z,20.20
2019-03-29T13:20:08.101Z,20.40
2019-03-29T13:22:38.325Z,20.50
2019-03-29T13:25:08.842Z,20.50
2019-03-29T13:27:38.125Z,20.60
2019-03-29T13:30:08.355Z,20.80
2019-03-29T13:32:37.623Z,20.90
2019-03-29T13:35:07.842Z,21.20
2019-03-29T13:37:37.194Z,21.40
2019-03-29T13:40:08.406Z,21.70
2019-03-29T13:42:37.745Z,21.80
2019-03-29T13:45:07.361Z,22.00
2019-03-29T13:47:49.105Z,22.30
2019-03-29T13:50:18.376Z,22.50
2019-03-29T13:52:47.647Z,22.70
2019-03-29T13:55:16.917Z,22.80
2019-03-29T13:57:46.178Z,23.00
2019-03-29T14:00:16.207Z,23.10
2019-03-29T14:02:45.479Z,23.10
2019-03-29T14:05:14.769Z,23.20
2019-03-29T14:07:44.044Z,23.30
2019-03-29T14:10:13.865Z,23.40
2019-03-29T14:12:43.136Z,23.50
2019-03-29T14:15:13.259Z,23.60
2019-03-29T14:17:42.534Z,23.80
2019-03-29T14:20:12.378Z,23.90
2019-03-29T14:22:41.652Z,24.00
2019-03-29T14:25:11.009Z,24.10
2019-03-29T14:27:40.276Z,24.20
2019-03-29T14:30:09.991Z,24.50
2019-03-29T14:32:39.269Z,25.10
2019-03-29T14:35:08.608Z,25.70
2019-03-29T14:37:37.884Z,26.40
2019-03-29T14:40:08.497Z,27.10
2019-03-29T14:42:37.785Z,27.50
2019-03-29T14:45:08.700Z,27.80
2019-03-29T14:47:43.220Z,27.90
2019-03-29T14:50:10.594Z,28.10
2019-03-29T14:52:39.897Z,28.10
2019-03-29T14:55:09.392Z,28.10
2019-03-29T14:57:38.677Z,27.90
2019-03-29T15:00:09.965Z,27.90
2019-03-29T15:02:39.396Z,27.80
2019-03-29T15:05:08.908Z,27.60
2019-03-29T15:07:38.924Z,27.30
2019-03-29T15:10:13.900Z,26.90
2019-03-29T15:12:43.185Z,26.50
2019-03-29T15:15:12.520Z,26.10
2019-03-29T15:17:41.806Z,25.80
2019-03-29T15:20:11.154Z,25.50
2019-03-29T15:22:40.429Z,25.40
2019-03-29T15:25:09.740Z,25.20
2019-03-29T15:27:39.019Z,25.20
2019-03-29T15:30:08.629Z,25.30
2019-03-29T15:32:37.908Z,25.50
2019-03-29T15:35:07.527Z,25.60
2019-03-29T15:37:36.815Z,25.70
2019-03-29T15:40:06.613Z,25.70
2019-03-29T15:42:35.901Z,25.70
2019-03-29T15:45:19.587Z,25.60
2019-03-29T15:47:40.265Z,25.40
2019-03-29T15:50:09.316Z,25.20
2019-03-29T15:52:38.589Z,25.00
2019-03-29T15:55:11.309Z,24.90
2019-03-29T15:57:39.894Z,24.60
2019-03-29T16:00:10.596Z,24.40
2019-03-29T16:02:39.962Z,24.10
2019-03-29T16:05:09.231Z,23.90
2019-03-29T16:07:38.517Z,23.70
2019-03-29T16:10:07.781Z,23.40
2019-03-29T16:12:37.068Z,23.10
2019-03-29T16:15:07.585Z,22.80
2019-03-29T16:17:36.876Z,22.50
2019-03-29T16:20:06.518Z,22.20
2019-03-29T16:22:35.841Z,22.00
2019-03-29T16:25:09.408Z,21.70
2019-03-29T16:27:38.676Z,21.50
2019-03-29T16:30:08.692Z,21.30
2019-03-29T16:32:37.974Z,21.10
2019-03-29T16:35:07.985Z,20.90
2019-03-29T16:37:38.322Z,20.60
2019-03-29T16:40:08.372Z,20.40
2019-03-29T16:42:37.656Z,20.30
2019-03-29T16:45:07.881Z,20.20
2019-03-29T16:47:38.284Z,20.00
2019-03-29T16:50:08.702Z,19.90
2019-03-29T16:52:37.976Z,19.80
2019-03-29T16:55:13.687Z,19.80
2019-03-29T16:57:38.854Z,19.70
2019-03-29T17:00:12.696Z,19.70
2019-03-29T17:02:42.235Z,19.60
2019-03-29T17:05:11.682Z,19.50
2019-03-29T17:07:40.940Z,19.40
2019-03-29T17:10:10.556Z,19.30
2019-03-29T17:12:39.831Z,19.30
2019-03-29T17:15:09.121Z,19.20
2019-03-29T17:17:38.388Z,19.10
2019-03-29T17:20:07.947Z,19.00
2019-03-29T17:22:38.061Z,18.90
2019-03-29T17:25:07.672Z,18.80
2019-03-29T17:27:36.949Z,18.70
2019-03-29T17:30:08.374Z,18.60
2019-03-29T17:32:37.664Z,18.50
2019-03-29T17:35:08.469Z,18.50
2019-03-29T17:37:37.744Z,18.40
2019-03-29T17:40:08.259Z,18.30
2019-03-29T17:42:37.530Z,18.30
2019-03-29T17:45:07.505Z,18.20
2019-03-29T17:47:36.767Z,18.20
2019-03-29T17:50:07.362Z,18.00
2019-03-29T17:52:38.255Z,18.00
2019-03-29T17:55:07.547Z,17.90
2019-03-29T17:57:36.797Z,17.90
2019-03-29T18:00:11.702Z,17.80
2019-03-29T18:02:40.973Z,17.70
2019-03-29T18:05:10.325Z,17.60
2019-03-29T18:07:39.600Z,17.50
2019-03-29T18:10:09.221Z,17.50
2019-03-29T18:12:38.496Z,17.40
2019-03-29T18:15:09.734Z,17.30
2019-03-29T18:17:39.010Z,17.20
2019-03-29T18:20:11.573Z,17.10
2019-03-29T18:22:40.840Z,17.00
2019-03-29T18:25:10.195Z,16.90
2019-03-29T18:27:40.447Z,16.90
2019-03-29T18:30:12.536Z,16.80
2019-03-29T18:32:41.936Z,16.80
2019-03-29T18:35:11.289Z,16.70
2019-03-29T18:37:40.842Z,16.60
2019-03-29T18:40:24.575Z,16.50
2019-03-29T18:42:55.149Z,16.50
2019-03-29T18:45:24.435Z,16.40
2019-03-29T18:47:53.747Z,16.30
2019-03-29T18:50:23.029Z,16.30
2019-03-29T18:52:52.317Z,16.20
2019-03-29T18:55:21.676Z,16.10
2019-03-29T18:57:50.946Z,16.10
2019-03-29T19:00:28.766Z,16.00
2019-03-29T19:02:58.030Z,15.90
2019-03-29T19:05:27.951Z,15.80
2019-03-29T19:07:57.301Z,15.70
2019-03-29T19:10:26.577Z,15.70
2019-03-29T19:12:56.095Z,15.60
2019-03-29T19:15:25.445Z,15.50
2019-03-29T19:17:54.824Z,15.50
2019-03-29T19:20:27.765Z,15.40
2019-03-29T19:22:55.072Z,15.40
2019-03-29T19:25:24.346Z,15.30
2019-03-29T19:27:53.616Z,15.20
2019-03-29T19:30:23.234Z,15.10
2019-03-29T19:32:52.512Z,15.00
2019-03-29T19:35:21.797Z,15.00
2019-03-29T19:37:52.039Z,14.90
2019-03-29T19:40:21.300Z,14.80
2019-03-29T19:42:50.581Z,14.80
2019-03-29T19:45:19.857Z,14.70
2019-03-29T19:47:49.149Z,14.70
2019-03-29T19:50:19.552Z,14.60
2019-03-29T19:52:48.837Z,14.50
2019-03-29T19:55:19.105Z,14.50
2019-03-29T19:57:49.416Z,14.40
2019-03-29T20:00:18.743Z,14.40
2019-03-29T20:02:48.278Z,14.30
2019-03-29T20:05:26.303Z,14.30
2019-03-29T20:07:56.433Z,14.20
2019-03-29T20:10:26.045Z,14.10
2019-03-29T20:12:55.959Z,14.10
2019-03-29T20:15:26.225Z,14.00
2019-03-29T20:17:56.575Z,14.00
2019-03-29T20:20:26.690Z,13.90
2019-03-29T20:22:57.101Z,13.90
2019-03-29T20:25:26.504Z,13.80
2019-03-29T20:27:58.294Z,13.80
2019-03-29T20:30:27.184Z,13.70
2019-03-29T20:32:56.483Z,13.70
2019-03-29T20:35:25.755Z,13.60
2019-03-29T20:37:55.037Z,13.50
2019-03-29T20:40:24.297Z,13.50
2019-03-29T20:42:53.577Z,13.40
2019-03-29T20:45:22.857Z,13.30
2019-03-29T20:47:52.250Z,13.30
2019-03-29T20:50:21.493Z,13.20
2019-03-29T20:52:50.781Z,13.20
2019-03-29T20:55:20.122Z,13.10
2019-03-29T20:57:49.424Z,13.10
2019-03-29T21:00:19.422Z,13.00
2019-03-29T21:02:48.720Z,13.00
2019-03-29T21:05:18.000Z,12.90
2019-03-29T21:07:47.286Z,12.80
2019-03-29T21:10:16.714Z,12.80
2019-03-29T21:12:46.012Z,12.70
2019-03-29T21:15:15.780Z,12.70
2019-03-29T21:17:55.960Z,12.60
2019-03-29T21:20:16.485Z,12.50
2019-03-29T21:22:45.773Z,12.50
2019-03-29T21:25:15.113Z,12.40
2019-03-29T21:27:44.385Z,12.30
2019-03-29T21:30:14.092Z,12.30
2019-03-29T21:32:43.396Z,12.20
2019-03-29T21:35:12.744Z,12.10
2019-03-29T21:37:42.027Z,12.10
2019-03-29T21:40:11.369Z,12.00
2019-03-29T21:42:40.648Z,12.00
2019-03-29T21:45:10.261Z,11.90
2019-03-29T21:47:39.565Z,11.90
2019-03-29T21:50:09.780Z,11.80
2019-03-29T21:52:39.066Z,11.80
2019-03-29T21:55:09.478Z,11.70
2019-03-29T21:57:38.749Z,11.60
2019-03-29T22:00:12.235Z,11.60
2019-03-29T22:02:41.505Z,11.50
2019-03-29T22:05:10.903Z,11.50
2019-03-29T22:07:40.229Z,11.50
2019-03-29T22:10:10.152Z,11.40
2019-03-29T22:12:42.797Z,11.30
2019-03-29T22:15:10.957Z,11.30
2019-03-29T22:17:40.202Z,11.30
2019-03-29T22:20:10.146Z,11.20
2019-03-29T22:22:39.450Z,11.20
2019-03-29T22:25:09.180Z,11.10
2019-03-29T22:27:39.445Z,11.00
2019-03-29T22:30:09.858Z,10.90
2019-03-29T22:32:39.195Z,10.80
2019-03-29T22:35:08.722Z,10.70
2019-03-29T22:37:37.989Z,10.60
2019-03-29T22:40:08.640Z,10.50
2019-03-29T22:42:37.967Z,10.40
2019-03-29T22:45:08.488Z,10.40
2019-03-29T22:47:37.752Z,10.30
2019-03-29T22:50:07.876Z,10.20
2019-03-29T22:52:37.168Z,10.10
2019-03-29T22:55:07.888Z,10.10
2019-03-29T22:57:56.514Z,10.00
2019-03-29T23:00:42.214Z,10.00
2019-03-29T23:03:13.171Z,10.00
2019-03-29T23:05:42.511Z,9.90
2019-03-29T23:08:11.778Z,9.80
2019-03-29T23:10:41.138Z,9.80
2019-03-29T23:13:10.403Z,9.80
2019-03-29T23:15:39.682Z,9.70
2019-03-29T23:18:08.944Z,9.70
2019-03-29T23:20:38.219Z,9.60
2019-03-29T23:23:07.489Z,9.60
2019-03-29T23:25:36.762Z,9.50
2019-03-29T23:28:06.057Z,9.50
2019-03-29T23:30:36.924Z,9.50
2019-03-29T23:33:06.199Z,9.50
2019-03-29T23:35:35.473Z,9.40
2019-03-29T23:38:04.809Z,9.40
2019-03-29T23:40:34.092Z,9.30
2019-03-29T23:43:03.352Z,9.30
2019-03-29T23:45:32.631Z,9.30
2019-03-29T23:48:01.905Z,9.30
2019-03-29T23:50:31.180Z,9.20
2019-03-29T23:53:00.457Z,9.20
2019-03-29T23:55:30.900Z,9.10
2019-03-29T23:58:00.174Z,9.10
